Whitbourne, Canada
Current Conditions -  °F | °C
As of 7:00 PM on Monday 20 Oct 2014 (Local Time) from CYYT Reporting Station
Few Clouds Few Clouds  
Wind Chill: 50°   Ceiling: Unl
Heat Index: 50°   Visibility: 15mi
Dew Point: 45°   Wind: 31mph
Humidity: 82%   Direction: 250°WSW
Pressure: 29.61"   Gusts: 41mph
Location:  47.42°N, 53.53°W
Report Text: CYYT 202100Z 25027G36KT 15SM FEW025 10/07 A2961 RMK SC2 SLP031
Loading
Personal Weather Stations






























Interactive Weather Map
Tropical Storm Tracking
New forecast layout! Learn more

10-Day Weather Forecast

Advertisements
Track Severe Weather on mobile